sensor_id;sensor_type;location;lat;lon;timestamp;pressure;altitude;pressure_sealevel;temperature;humidity
10700;BME280;5401;41.986;21.452;2024-02-28T00:01:38;98644.31;;;14.03;59.63
10700;BME280;5401;41.986;21.452;2024-02-28T00:04:07;98655.25;;;14.08;58.31
10700;BME280;5401;41.986;21.452;2024-02-28T00:06:34;98655.25;;;14.08;59.17
10700;BME280;5401;41.986;21.452;2024-02-28T00:09:02;98652.19;;;14.05;58.86
10700;BME280;5401;41.986;21.452;2024-02-28T00:11:30;98641.91;;;13.95;58.99
10700;BME280;5401;41.986;21.452;2024-02-28T00:13:58;98652.22;;;13.98;59.19
10700;BME280;5401;41.986;21.452;2024-02-28T00:16:26;98657.03;;;13.96;59.31
10700;BME280;5401;41.986;21.452;2024-02-28T00:18:53;98650.34;;;13.99;59.34
10700;BME280;5401;41.986;21.452;2024-02-28T00:21:23;98654.53;;;13.95;59.66
10700;BME280;5401;41.986;21.452;2024-02-28T00:23:50;98661.81;;;13.94;59.17
10700;BME280;5401;41.986;21.452;2024-02-28T00:26:18;98624.00;;;13.72;59.25
10700;BME280;5401;41.986;21.452;2024-02-28T00:28:45;98661.06;;;13.88;59.82
10700;BME280;5401;41.986;21.452;2024-02-28T00:31:13;98662.13;;;13.87;59.57
10700;BME280;5401;41.986;21.452;2024-02-28T00:33:40;98664.41;;;13.83;59.36
10700;BME280;5401;41.986;21.452;2024-02-28T00:36:08;98664.41;;;13.83;59.89
10700;BME280;5401;41.986;21.452;2024-02-28T00:38:37;98657.41;;;13.82;59.36
10700;BME280;5401;41.986;21.452;2024-02-28T00:41:05;98670.06;;;13.82;59.96
10700;BME280;5401;41.986;21.452;2024-02-28T00:43:32;98664.06;;;13.80;60.73
10700;BME280;5401;41.986;21.452;2024-02-28T00:46:00;98666.81;;;13.73;60.47
10700;BME280;5401;41.986;21.452;2024-02-28T00:48:28;98659.41;;;13.69;59.70
10700;BME280;5401;41.986;21.452;2024-02-28T00:50:55;98653.69;;;13.65;59.75
10700;BME280;5401;41.986;21.452;2024-02-28T00:53:23;98670.19;;;13.69;60.66
10700;BME280;5401;41.986;21.452;2024-02-28T00:55:52;98673.13;;;13.67;61.00
10700;BME280;5401;41.986;21.452;2024-02-28T00:58:21;98675.22;;;13.65;60.87
10700;BME280;5401;41.986;21.452;2024-02-28T01:00:48;98673.75;;;13.63;60.84
10700;BME280;5401;41.986;21.452;2024-02-28T01:03:16;98670.34;;;13.56;59.84
10700;BME280;5401;41.986;21.452;2024-02-28T01:05:44;98668.16;;;13.47;60.82
10700;BME280;5401;41.986;21.452;2024-02-28T01:08:12;98679.81;;;13.41;60.39
10700;BME280;5401;41.986;21.452;2024-02-28T01:10:39;98675.09;;;13.36;61.34
10700;BME280;5401;41.986;21.452;2024-02-28T01:13:08;98680.03;;;13.39;60.61
10700;BME280;5401;41.986;21.452;2024-02-28T01:15:36;98678.59;;;13.37;60.85
10700;BME280;5401;41.986;21.452;2024-02-28T01:18:04;98671.00;;;13.34;60.39
10700;BME280;5401;41.986;21.452;2024-02-28T01:20:31;98669.56;;;13.31;60.55
10700;BME280;5401;41.986;21.452;2024-02-28T01:23:00;98659.91;;;13.24;61.32
10700;BME280;5401;41.986;21.452;2024-02-28T01:25:27;98663.06;;;13.21;60.84
10700;BME280;5401;41.986;21.452;2024-02-28T01:27:56;98624.00;;;12.94;61.06
10700;BME280;5401;41.986;21.452;2024-02-28T01:30:25;98675.44;;;13.22;61.61
10700;BME280;5401;41.986;21.452;2024-02-28T01:32:53;98678.75;;;13.24;61.36
10700;BME280;5401;41.986;21.452;2024-02-28T01:35:20;98666.94;;;13.25;60.96
10700;BME280;5401;41.986;21.452;2024-02-28T01:37:48;98666.94;;;13.25;61.18
10700;BME280;5401;41.986;21.452;2024-02-28T01:40:16;98665.28;;;13.24;61.59
10700;BME280;5401;41.986;21.452;2024-02-28T01:42:43;98661.19;;;13.21;62.47
10700;BME280;5401;41.986;21.452;2024-02-28T01:45:13;98669.84;;;13.23;61.72
10700;BME280;5401;41.986;21.452;2024-02-28T01:47:43;98665.50;;;13.22;61.98
10700;BME280;5401;41.986;21.452;2024-02-28T01:50:11;98670.06;;;13.22;62.73
10700;BME280;5401;41.986;21.452;2024-02-28T01:52:40;98666.38;;;13.17;61.35
10700;BME280;5401;41.986;21.452;2024-02-28T01:55:08;98660.66;;;13.13;61.93
10700;BME280;5401;41.986;21.452;2024-02-28T01:57:37;98669.91;;;13.17;61.62
10700;BME280;5401;41.986;21.452;2024-02-28T02:00:06;98665.78;;;13.15;62.10
10700;BME280;5401;41.986;21.452;2024-02-28T02:02:35;98659.00;;;13.12;62.26
10700;BME280;5401;41.986;21.452;2024-02-28T02:05:05;98666.84;;;13.14;62.74
10700;BME280;5401;41.986;21.452;2024-02-28T02:07:32;98670.81;;;13.11;62.29
10700;BME280;5401;41.986;21.452;2024-02-28T02:10:01;98676.38;;;13.10;62.79
10700;BME280;5401;41.986;21.452;2024-02-28T02:12:29;98666.91;;;13.07;63.01
10700;BME280;5401;41.986;21.452;2024-02-28T02:14:58;98667.94;;;13.06;62.11
10700;BME280;5401;41.986;21.452;2024-02-28T02:17:26;98670.25;;;13.03;62.92
10700;BME280;5401;41.986;21.452;2024-02-28T02:19:54;98677.13;;;12.99;62.64
10700;BME280;5401;41.986;21.452;2024-02-28T02:22:27;98683.53;;;12.98;63.90
10700;BME280;5401;41.986;21.452;2024-02-28T02:24:56;98678.81;;;12.93;63.71
10700;BME280;5401;41.986;21.452;2024-02-28T02:27:24;98680.91;;;12.91;62.73
10700;BME280;5401;41.986;21.452;2024-02-28T02:29:53;98673.72;;;12.85;64.31
10700;BME280;5401;41.986;21.452;2024-02-28T02:32:21;98670.88;;;12.81;63.14
10700;BME280;5401;41.986;21.452;2024-02-28T02:34:48;98678.94;;;12.81;63.81
10700;BME280;5401;41.986;21.452;2024-02-28T02:37:16;98681.81;;;12.79;64.08
10700;BME280;5401;41.986;21.452;2024-02-28T02:39:43;98674.78;;;12.78;63.90
10700;BME280;5401;41.986;21.452;2024-02-28T02:42:12;98679.31;;;12.78;64.80
10700;BME280;5401;41.986;21.452;2024-02-28T02:44:41;98676.84;;;12.76;63.76
10700;BME280;5401;41.986;21.452;2024-02-28T02:47:09;98677.88;;;12.75;63.63
10700;BME280;5401;41.986;21.452;2024-02-28T02:49:37;98676.47;;;12.73;64.90
10700;BME280;5401;41.986;21.452;2024-02-28T02:52:05;98681.44;;;12.69;64.51
10700;BME280;5401;41.986;21.452;2024-02-28T02:54:32;98675.88;;;12.64;64.14
10700;BME280;5401;41.986;21.452;2024-02-28T02:57:00;98673.19;;;12.64;64.22
10700;BME280;5401;41.986;21.452;2024-02-28T02:59:29;98675.72;;;12.59;64.90
10700;BME280;5401;41.986;21.452;2024-02-28T03:01:56;98677.00;;;12.57;64.47
10700;BME280;5401;41.986;21.452;2024-02-28T03:04:24;98676.38;;;12.55;64.72
10700;BME280;5401;41.986;21.452;2024-02-28T03:06:51;98668.75;;;12.52;64.27
10700;BME280;5401;41.986;21.452;2024-02-28T03:09:18;98659.53;;;12.42;64.20
10700;BME280;5401;41.986;21.452;2024-02-28T03:11:46;98677.47;;;12.47;64.60
10700;BME280;5401;41.986;21.452;2024-02-28T03:14:13;98671.69;;;12.44;65.31
10700;BME280;5401;41.986;21.452;2024-02-28T03:16:44;98676.44;;;12.42;65.07
10700;BME280;5401;41.986;21.452;2024-02-28T03:19:11;98676.69;;;12.41;65.72
10700;BME280;5401;41.986;21.452;2024-02-28T03:21:39;98685.56;;;12.41;65.30
10700;BME280;5401;41.986;21.452;2024-02-28T03:24:07;98681.00;;;12.42;64.80
10700;BME280;5401;41.986;21.452;2024-02-28T03:26:35;98671.53;;;12.39;65.42
10700;BME280;5401;41.986;21.452;2024-02-28T03:29:03;98671.72;;;12.38;65.40
10700;BME280;5401;41.986;21.452;2024-02-28T03:31:30;98678.16;;;12.37;65.67
10700;BME280;5401;41.986;21.452;2024-02-28T03:33:59;98679.19;;;12.36;65.83
10700;BME280;5401;41.986;21.452;2024-02-28T03:36:28;98687.03;;;12.37;65.07
10700;BME280;5401;41.986;21.452;2024-02-28T03:38:55;98696.97;;;12.37;65.72
10700;BME280;5401;41.986;21.452;2024-02-28T03:41:23;98692.41;;;12.37;65.85
10700;BME280;5401;41.986;21.452;2024-02-28T03:43:50;98692.59;;;12.36;64.89
10700;BME280;5401;41.986;21.452;2024-02-28T03:46:17;98695.28;;;12.36;66.00
10700;BME280;5401;41.986;21.452;2024-02-28T03:48:45;98695.75;;;12.33;65.93
10700;BME280;5401;41.986;21.452;2024-02-28T03:51:14;98696.59;;;12.27;65.43
10700;BME280;5401;41.986;21.452;2024-02-28T03:53:41;98705.06;;;12.30;65.04
10700;BME280;5401;41.986;21.452;2024-02-28T03:56:09;98702.56;;;12.29;66.12
10700;BME280;5401;41.986;21.452;2024-02-28T03:58:39;98709.81;;;12.28;65.56
10700;BME280;5401;41.986;21.452;2024-02-28T04:01:06;98713.31;;;12.29;65.19
10700;BME280;5401;41.986;21.452;2024-02-28T04:03:34;98712.25;;;12.30;65.38
10700;BME280;5401;41.986;21.452;2024-02-28T04:06:02;98724.66;;;12.31;65.90
10700;BME280;5401;41.986;21.452;2024-02-28T04:08:30;98715.34;;;12.33;65.66
10700;BME280;5401;41.986;21.452;2024-02-28T04:10:58;98720.91;;;12.32;65.88
10700;BME280;5401;41.986;21.452;2024-02-28T04:13:25;98725.06;;;12.34;65.36
10700;BME280;5401;41.986;21.452;2024-02-28T04:15:53;98727.13;;;12.32;66.04
10700;BME280;5401;41.986;21.452;2024-02-28T04:18:21;98678.94;;;12.07;65.61
10700;BME280;5401;41.986;21.452;2024-02-28T04:20:49;98729.59;;;12.34;65.25
10700;BME280;5401;41.986;21.452;2024-02-28T04:23:16;98719.09;;;12.32;66.21
10700;BME280;5401;41.986;21.452;2024-02-28T04:25:45;98723.59;;;12.32;66.30
10700;BME280;5401;41.986;21.452;2024-02-28T04:28:12;98729.59;;;12.34;65.45
10700;BME280;5401;41.986;21.452;2024-02-28T04:30:40;98711.88;;;12.26;65.43
10700;BME280;5401;41.986;21.452;2024-02-28T04:33:08;98727.13;;;12.32;66.68
10700;BME280;5401;41.986;21.452;2024-02-28T04:35:35;98732.50;;;12.32;66.34
10700;BME280;5401;41.986;21.452;2024-02-28T04:38:03;98733.31;;;12.33;66.46
10700;BME280;5401;41.986;21.452;2024-02-28T04:40:30;98736.41;;;12.30;65.86
10700;BME280;5401;41.986;21.452;2024-02-28T04:42:59;98734.59;;;12.30;65.57
10700;BME280;5401;41.986;21.452;2024-02-28T04:45:27;98726.72;;;12.29;66.24
10700;BME280;5401;41.986;21.452;2024-02-28T04:47:55;98730.88;;;12.25;66.22
10700;BME280;5401;41.986;21.452;2024-02-28T04:50:23;98735.63;;;12.23;65.68
10700;BME280;5401;41.986;21.452;2024-02-28T04:52:51;98733.81;;;12.17;65.75
10700;BME280;5401;41.986;21.452;2024-02-28T04:55:18;98725.75;;;12.17;66.71
10700;BME280;5401;41.986;21.452;2024-02-28T04:57:46;98729.06;;;12.19;65.92
10700;BME280;5401;41.986;21.452;2024-02-28T05:00:15;98733.41;;;12.20;65.84
10700;BME280;5401;41.986;21.452;2024-02-28T05:02:43;98733.59;;;12.18;65.98
10700;BME280;5401;41.986;21.452;2024-02-28T05:05:10;98730.09;;;12.18;66.65
10700;BME280;5401;41.986;21.452;2024-02-28T05:07:38;98730.91;;;12.18;66.83
10700;BME280;5401;41.986;21.452;2024-02-28T05:10:07;98738.53;;;12.21;66.60
10700;BME280;5401;41.986;21.452;2024-02-28T05:12:34;98733.16;;;12.21;66.06
10700;BME280;5401;41.986;21.452;2024-02-28T05:15:02;98737.06;;;12.25;66.38
10700;BME280;5401;41.986;21.452;2024-02-28T05:17:31;98737.69;;;12.27;66.32
10700;BME280;5401;41.986;21.452;2024-02-28T05:19:59;98734.78;;;12.29;67.16
10700;BME280;5401;41.986;21.452;2024-02-28T05:22:26;98742.41;;;12.32;66.63
10700;BME280;5401;41.986;21.452;2024-02-28T05:24:54;98744.88;;;12.33;66.25
10700;BME280;5401;41.986;21.452;2024-02-28T05:27:21;98751.47;;;12.37;67.00
10700;BME280;5401;41.986;21.452;2024-02-28T05:29:48;98747.75;;;12.38;66.26
10700;BME280;5401;41.986;21.452;2024-02-28T05:32:15;98748.13;;;12.42;67.32
10700;BME280;5401;41.986;21.452;2024-02-28T05:34:45;98753.91;;;12.45;66.19
10700;BME280;5401;41.986;21.452;2024-02-28T05:37:13;98755.78;;;12.45;66.71
10700;BME280;5401;41.986;21.452;2024-02-28T05:39:43;98762.13;;;12.50;66.86
10700;BME280;5401;41.986;21.452;2024-02-28T05:42:10;98767.50;;;12.50;66.14
10700;BME280;5401;41.986;21.452;2024-02-28T05:44:38;98776.16;;;12.52;66.16
10700;BME280;5401;41.986;21.452;2024-02-28T05:47:06;98772.25;;;12.54;66.92
10700;BME280;5401;41.986;21.452;2024-02-28T05:49:33;98777.19;;;12.57;66.31
10700;BME280;5401;41.986;21.452;2024-02-28T05:52:02;98771.00;;;12.57;67.03
10700;BME280;5401;41.986;21.452;2024-02-28T05:54:30;98774.50;;;12.57;66.38
10700;BME280;5401;41.986;21.452;2024-02-28T05:56:57;98771.59;;;12.59;67.03
10700;BME280;5401;41.986;21.452;2024-02-28T05:59:25;98765.41;;;12.58;66.76
10700;BME280;5401;41.986;21.452;2024-02-28T06:01:52;98779.41;;;12.67;67.38
10700;BME280;5401;41.986;21.452;2024-02-28T06:04:20;98778.97;;;12.70;66.69
10700;BME280;5401;41.986;21.452;2024-02-28T06:06:47;98782.88;;;12.74;66.02
10700;BME280;5401;41.986;21.452;2024-02-28T06:09:18;98786.16;;;12.76;66.23
10700;BME280;5401;41.986;21.452;2024-02-28T06:11:45;98787.22;;;12.75;66.22
10700;BME280;5401;41.986;21.452;2024-02-28T06:14:13;98789.06;;;12.74;67.14
10700;BME280;5401;41.986;21.452;2024-02-28T06:16:40;98799.59;;;12.82;65.75
10700;BME280;5401;41.986;21.452;2024-02-28T06:19:08;98798.13;;;12.86;66.67
10700;BME280;5401;41.986;21.452;2024-02-28T06:21:45;98809.44;;;12.94;66.65
10700;BME280;5401;41.986;21.452;2024-02-28T06:24:13;98803.59;;;13.04;66.09
10700;BME280;5401;41.986;21.452;2024-02-28T06:26:41;98803.94;;;13.14;66.93
10700;BME280;5401;41.986;21.452;2024-02-28T06:29:09;98805.56;;;13.21;66.80
10700;BME280;5401;41.986;21.452;2024-02-28T06:31:37;98805.09;;;13.24;65.64
10700;BME280;5401;41.986;21.452;2024-02-28T06:34:05;98815.59;;;13.32;65.60
10700;BME280;5401;41.986;21.452;2024-02-28T06:36:32;98811.38;;;13.42;66.39
10700;BME280;5401;41.986;21.452;2024-02-28T06:39:00;98815.53;;;13.87;65.22
10700;BME280;5401;41.986;21.452;2024-02-28T06:41:28;98811.72;;;14.18;64.10
10700;BME280;5401;41.986;21.452;2024-02-28T06:43:56;98822.25;;;14.20;63.90
10700;BME280;5401;41.986;21.452;2024-02-28T06:46:26;98785.38;;;14.02;64.46
10700;BME280;5401;41.986;21.452;2024-02-28T06:48:53;98822.47;;;14.36;63.87
10700;BME280;5401;41.986;21.452;2024-02-28T06:51:21;98826.03;;;14.65;63.02
10700;BME280;5401;41.986;21.452;2024-02-28T06:53:48;98822.22;;;14.73;62.84
10700;BME280;5401;41.986;21.452;2024-02-28T06:56:16;98815.47;;;14.82;63.12
10700;BME280;5401;41.986;21.452;2024-02-28T06:58:43;98818.22;;;14.93;62.84
10700;BME280;5401;41.986;21.452;2024-02-28T07:01:12;98824.22;;;15.06;62.80
10700;BME280;5401;41.986;21.452;2024-02-28T07:03:40;98825.13;;;15.18;62.12
10700;BME280;5401;41.986;21.452;2024-02-28T07:06:07;98816.00;;;15.31;62.10
10700;BME280;5401;41.986;21.452;2024-02-28T07:08:35;98826.03;;;15.41;61.93
10700;BME280;5401;41.986;21.452;2024-02-28T07:11:03;98823.69;;;15.56;61.42
10700;BME280;5401;41.986;21.452;2024-02-28T07:13:30;98818.56;;;15.66;61.47
10700;BME280;5401;41.986;21.452;2024-02-28T07:15:58;98818.81;;;15.76;61.29
10700;BME280;5401;41.986;21.452;2024-02-28T07:18:27;98805.75;;;15.73;61.04
10700;BME280;5401;41.986;21.452;2024-02-28T07:20:56;98812.91;;;15.79;61.09
10700;BME280;5401;41.986;21.452;2024-02-28T07:23:23;98818.09;;;15.80;60.97
10700;BME280;5401;41.986;21.452;2024-02-28T07:25:51;98820.53;;;15.70;61.09
10700;BME280;5401;41.986;21.452;2024-02-28T07:28:18;98831.56;;;15.69;60.87
10700;BME280;5401;41.986;21.452;2024-02-28T07:30:46;98823.84;;;15.72;60.99
10700;BME280;5401;41.986;21.452;2024-02-28T07:33:14;98834.53;;;15.79;60.56
10700;BME280;5401;41.986;21.452;2024-02-28T07:35:46;98836.88;;;15.87;60.46
10700;BME280;5401;41.986;21.452;2024-02-28T07:38:14;98820.22;;;15.90;60.47
10700;BME280;5401;41.986;21.452;2024-02-28T07:40:43;98827.72;;;15.99;60.61
10700;BME280;5401;41.986;21.452;2024-02-28T07:43:10;98803.44;;;15.88;60.75
10700;BME280;5401;41.986;21.452;2024-02-28T07:45:39;98828.22;;;16.19;60.52
10700;BME280;5401;41.986;21.452;2024-02-28T07:48:06;98835.56;;;16.46;60.63
10700;BME280;5401;41.986;21.452;2024-02-28T07:50:34;98827.72;;;16.83;59.46
10700;BME280;5401;41.986;21.452;2024-02-28T07:53:04;98834.28;;;17.26;59.94
10700;BME280;5401;41.986;21.452;2024-02-28T07:55:32;98823.75;;;17.41;59.89
10700;BME280;5401;41.986;21.452;2024-02-28T07:57:59;98810.69;;;17.38;58.55
10700;BME280;5401;41.986;21.452;2024-02-28T08:00:27;98827.09;;;17.48;58.85
10700;BME280;5401;41.986;21.452;2024-02-28T08:02:54;98825.03;;;17.39;58.59
10700;BME280;5401;41.986;21.452;2024-02-28T08:05:22;98829.28;;;17.35;59.24
10700;BME280;5401;41.986;21.452;2024-02-28T08:07:50;98802.78;;;17.20;59.21
10700;BME280;5401;41.986;21.452;2024-02-28T08:10:19;98819.53;;;17.34;58.95
10700;BME280;5401;41.986;21.452;2024-02-28T08:12:47;98805.19;;;17.06;58.75
10700;BME280;5401;41.986;21.452;2024-02-28T08:15:14;98816.97;;;17.00;59.13
10700;BME280;5401;41.986;21.452;2024-02-28T08:17:42;98809.28;;;17.08;59.67
10700;BME280;5401;41.986;21.452;2024-02-28T08:20:10;98815.91;;;17.28;58.96
10700;BME280;5401;41.986;21.452;2024-02-28T08:22:38;98811.00;;;17.25;58.78
10700;BME280;5401;41.986;21.452;2024-02-28T08:25:06;98811.38;;;17.17;59.48
10700;BME280;5401;41.986;21.452;2024-02-28T08:27:35;98810.03;;;17.31;59.16
10700;BME280;5401;41.986;21.452;2024-02-28T08:30:03;98811.66;;;17.32;59.48
10700;BME280;5401;41.986;21.452;2024-02-28T08:32:32;98805.91;;;17.29;59.67
10700;BME280;5401;41.986;21.452;2024-02-28T08:34:59;98802.41;;;17.45;59.09
10700;BME280;5401;41.986;21.452;2024-02-28T08:37:27;98803.66;;;17.53;59.48
10700;BME280;5401;41.986;21.452;2024-02-28T08:39:55;98796.25;;;17.49;59.39
10700;BME280;5401;41.986;21.452;2024-02-28T08:42:24;98792.16;;;17.63;58.96
10700;BME280;5401;41.986;21.452;2024-02-28T08:44:53;98764.25;;;17.62;58.16
10700;BME280;5401;41.986;21.452;2024-02-28T08:47:23;98799.28;;;17.85;58.87
10700;BME280;5401;41.986;21.452;2024-02-28T08:49:50;98806.94;;;17.88;57.88
10700;BME280;5401;41.986;21.452;2024-02-28T08:52:18;98807.69;;;17.84;58.46
10700;BME280;5401;41.986;21.452;2024-02-28T08:54:45;98788.16;;;17.82;57.86
10700;BME280;5401;41.986;21.452;2024-02-28T08:57:13;98797.50;;;18.07;57.63
10700;BME280;5401;41.986;21.452;2024-02-28T08:59:40;98795.16;;;18.15;57.99
10700;BME280;5401;41.986;21.452;2024-02-28T09:02:09;98794.78;;;18.44;57.95
10700;BME280;5401;41.986;21.452;2024-02-28T09:04:37;98793.16;;;18.64;57.41
10700;BME280;5401;41.986;21.452;2024-02-28T09:07:05;98805.31;;;18.83;56.51
10700;BME280;5401;41.986;21.452;2024-02-28T09:09:32;98802.22;;;18.96;57.08
10700;BME280;5401;41.986;21.452;2024-02-28T09:12:04;98797.47;;;19.08;56.35
10700;BME280;5401;41.986;21.452;2024-02-28T09:14:31;98798.72;;;19.22;55.76
10700;BME280;5401;41.986;21.452;2024-02-28T09:16:59;98802.91;;;19.34;56.21
10700;BME280;5401;41.986;21.452;2024-02-28T09:19:30;98793.75;;;19.45;55.63
10700;BME280;5401;41.986;21.452;2024-02-28T09:21:58;98805.03;;;19.58;55.64
10700;BME280;5401;41.986;21.452;2024-02-28T09:24:26;98799.94;;;19.66;55.39
10700;BME280;5401;41.986;21.452;2024-02-28T09:26:53;98761.56;;;19.58;55.08
10700;BME280;5401;41.986;21.452;2024-02-28T09:29:21;98775.31;;;19.78;54.97
10700;BME280;5401;41.986;21.452;2024-02-28T09:31:48;98774.03;;;19.85;54.79
10700;BME280;5401;41.986;21.452;2024-02-28T09:34:16;98777.31;;;19.87;54.47
10700;BME280;5401;41.986;21.452;2024-02-28T09:36:45;98779.53;;;19.90;54.45
10700;BME280;5401;41.986;21.452;2024-02-28T09:39:13;98780.09;;;19.97;54.35
10700;BME280;5401;41.986;21.452;2024-02-28T09:41:41;98768.41;;;19.97;54.35
10700;BME280;5401;41.986;21.452;2024-02-28T09:44:08;98770.88;;;19.98;54.28
10700;BME280;5401;41.986;21.452;2024-02-28T09:46:36;98777.38;;;19.92;53.88
10700;BME280;5401;41.986;21.452;2024-02-28T09:49:04;98774.81;;;19.81;54.41
10700;BME280;5401;41.986;21.452;2024-02-28T09:51:33;98769.03;;;19.72;54.05
10700;BME280;5401;41.986;21.452;2024-02-28T09:54:02;98763.44;;;19.84;54.05
10700;BME280;5401;41.986;21.452;2024-02-28T09:56:31;98770.31;;;19.96;53.48
10700;BME280;5401;41.986;21.452;2024-02-28T09:59:00;98769.22;;;19.97;53.67
10700;BME280;5401;41.986;21.452;2024-02-28T10:01:29;98776.81;;;19.90;53.19
10700;BME280;5401;41.986;21.452;2024-02-28T10:03:57;98764.25;;;19.84;52.77
10700;BME280;5401;41.986;21.452;2024-02-28T10:06:26;98757.00;;;19.64;52.93
10700;BME280;5401;41.986;21.452;2024-02-28T10:08:54;98783.47;;;19.47;52.64
10700;BME280;5401;41.986;21.452;2024-02-28T10:11:23;98764.13;;;19.12;53.25
10700;BME280;5401;41.986;21.452;2024-02-28T10:13:52;98748.09;;;18.85;53.13
10700;BME280;5401;41.986;21.452;2024-02-28T10:16:21;98752.38;;;18.81;53.92
10700;BME280;5401;41.986;21.452;2024-02-28T10:18:49;98739.50;;;18.71;53.40
10700;BME280;5401;41.986;21.452;2024-02-28T10:21:16;98718.13;;;18.54;53.88
10700;BME280;5401;41.986;21.452;2024-02-28T10:23:44;98745.06;;;18.60;53.61
10700;BME280;5401;41.986;21.452;2024-02-28T10:26:12;98732.22;;;18.51;53.76
10700;BME280;5401;41.986;21.452;2024-02-28T10:28:41;98722.75;;;18.32;54.33
10700;BME280;5401;41.986;21.452;2024-02-28T10:31:09;98744.63;;;18.25;53.66
10700;BME280;5401;41.986;21.452;2024-02-28T10:33:38;98732.03;;;17.98;54.34
10700;BME280;5401;41.986;21.452;2024-02-28T10:36:06;98729.50;;;17.92;54.13
10700;BME280;5401;41.986;21.452;2024-02-28T10:38:33;98734.03;;;17.86;54.61
10700;BME280;5401;41.986;21.452;2024-02-28T10:41:02;98722.28;;;17.81;53.98
10700;BME280;5401;41.986;21.452;2024-02-28T10:43:31;98745.53;;;17.77;54.68
10700;BME280;5401;41.986;21.452;2024-02-28T10:46:02;98700.91;;;17.47;54.29
10700;BME280;5401;41.986;21.452;2024-02-28T10:48:29;98728.81;;;17.64;54.90
10700;BME280;5401;41.986;21.452;2024-02-28T10:50:58;98739.72;;;17.69;54.90
10700;BME280;5401;41.986;21.452;2024-02-28T10:53:32;98723.47;;;17.69;54.06
10700;BME280;5401;41.986;21.452;2024-02-28T10:56:04;98730.75;;;17.85;54.91
10700;BME280;5401;41.986;21.452;2024-02-28T10:58:35;98787.28;;;17.97;53.85
10700;BME280;5401;41.986;21.452;2024-02-28T11:01:05;98727.38;;;17.94;54.02
10700;BME280;5401;41.986;21.452;2024-02-28T11:03:33;98719.06;;;18.00;54.14
10700;BME280;5401;41.986;21.452;2024-02-28T11:06:01;98726.84;;;17.97;54.31
10700;BME280;5401;41.986;21.452;2024-02-28T11:08:29;98708.84;;;17.86;53.60
10700;BME280;5401;41.986;21.452;2024-02-28T11:10:57;98717.25;;;17.89;53.90
10700;BME280;5401;41.986;21.452;2024-02-28T11:13:26;98706.31;;;17.80;54.36
10700;BME280;5401;41.986;21.452;2024-02-28T11:15:54;98711.22;;;17.83;53.50
10700;BME280;5401;41.986;21.452;2024-02-28T11:18:24;98672.75;;;17.64;54.06
10700;BME280;5401;41.986;21.452;2024-02-28T11:20:51;98706.88;;;17.82;54.27
10700;BME280;5401;41.986;21.452;2024-02-28T11:23:19;98704.16;;;17.82;53.76
10700;BME280;5401;41.986;21.452;2024-02-28T11:25:47;98702.03;;;17.84;53.68
10700;BME280;5401;41.986;21.452;2024-02-28T11:28:15;98694.34;;;17.76;53.96
10700;BME280;5401;41.986;21.452;2024-02-28T11:30:43;98701.69;;;17.80;53.93
10700;BME280;5401;41.986;21.452;2024-02-28T11:33:10;98684.72;;;17.68;53.61
10700;BME280;5401;41.986;21.452;2024-02-28T11:35:39;98725.03;;;17.65;53.57
10700;BME280;5401;41.986;21.452;2024-02-28T11:38:07;98709.47;;;17.55;54.83
10700;BME280;5401;41.986;21.452;2024-02-28T11:40:36;98729.31;;;17.45;54.65
10700;BME280;5401;41.986;21.452;2024-02-28T11:43:04;98727.00;;;17.37;55.06
10700;BME280;5401;41.986;21.452;2024-02-28T11:45:39;98713.22;;;17.38;54.77
10700;BME280;5401;41.986;21.452;2024-02-28T11:48:07;98695.19;;;17.27;54.91
10700;BME280;5401;41.986;21.452;2024-02-28T11:50:38;98685.84;;;17.18;55.00
10700;BME280;5401;41.986;21.452;2024-02-28T11:53:06;98705.69;;;17.24;55.48
10700;BME280;5401;41.986;21.452;2024-02-28T11:55:34;98709.22;;;17.24;54.48
10700;BME280;5401;41.986;21.452;2024-02-28T11:58:02;98710.28;;;17.23;55.24
10700;BME280;5401;41.986;21.452;2024-02-28T12:00:29;98691.38;;;17.12;54.61
10700;BME280;5401;41.986;21.452;2024-02-28T12:03:04;98705.41;;;17.09;54.78
10700;BME280;5401;41.986;21.452;2024-02-28T12:05:33;98703.09;;;17.01;55.71
10700;BME280;5401;41.986;21.452;2024-02-28T12:08:02;98704.91;;;16.96;54.80
10700;BME280;5401;41.986;21.452;2024-02-28T12:10:31;98696.13;;;16.89;55.92
10700;BME280;5401;41.986;21.452;2024-02-28T12:12:59;98682.00;;;16.71;55.59
10700;BME280;5401;41.986;21.452;2024-02-28T12:15:28;98716.50;;;16.80;55.86
10700;BME280;5401;41.986;21.452;2024-02-28T12:17:56;98710.66;;;16.72;56.23
10700;BME280;5401;41.986;21.452;2024-02-28T12:20:24;98713.19;;;16.62;56.15
10700;BME280;5401;41.986;21.452;2024-02-28T12:22:51;98718.50;;;16.57;55.88
10700;BME280;5401;41.986;21.452;2024-02-28T12:25:20;98700.44;;;16.46;56.34
10700;BME280;5401;41.986;21.452;2024-02-28T12:27:48;98724.47;;;16.31;55.96
10700;BME280;5401;41.986;21.452;2024-02-28T12:30:15;98683.25;;;16.24;57.00
10700;BME280;5401;41.986;21.452;2024-02-28T12:32:43;98699.34;;;16.19;56.43
10700;BME280;5401;41.986;21.452;2024-02-28T12:35:10;98693.22;;;16.24;56.98
10700;BME280;5401;41.986;21.452;2024-02-28T12:37:38;98690.66;;;16.17;56.81
10700;BME280;5401;41.986;21.452;2024-02-28T12:40:07;98681.63;;;16.12;56.72
10700;BME280;5401;41.986;21.452;2024-02-28T12:42:36;98691.13;;;16.03;57.29
10700;BME280;5401;41.986;21.452;2024-02-28T12:45:04;98689.66;;;15.96;57.40
10700;BME280;5401;41.986;21.452;2024-02-28T12:47:32;98673.56;;;15.89;57.24
10700;BME280;5401;41.986;21.452;2024-02-28T12:49:59;98676.25;;;15.89;57.81
10700;BME280;5401;41.986;21.452;2024-02-28T12:52:27;98678.72;;;15.91;57.79
10700;BME280;5401;41.986;21.452;2024-02-28T12:54:54;98676.16;;;15.96;57.55
10700;BME280;5401;41.986;21.452;2024-02-28T12:57:22;98686.56;;;16.04;57.36
10700;BME280;5401;41.986;21.452;2024-02-28T12:59:50;98687.28;;;15.99;57.81
10700;BME280;5401;41.986;21.452;2024-02-28T13:02:19;98674.28;;;15.85;57.39
10700;BME280;5401;41.986;21.452;2024-02-28T13:04:48;98687.66;;;15.91;57.45